createdAt,value
2023-01-22T00:01:13.793Z,3.88
2023-01-22T00:03:49.676Z,4.05
2023-01-22T00:06:18.957Z,3.15
2023-01-22T00:08:46.779Z,3.83
2023-01-22T00:11:14.832Z,3.75
2023-01-22T00:13:42.012Z,3.63
2023-01-22T00:16:10.614Z,3.58
2023-01-22T00:18:37.741Z,3.08
2023-01-22T00:21:05.071Z,3.50
2023-01-22T00:23:33.247Z,4.15
2023-01-22T00:26:12.365Z,3.83
2023-01-22T00:28:41.700Z,3.90
2023-01-22T00:31:10.659Z,3.90
2023-01-22T00:33:39.285Z,3.72
2023-01-22T00:36:08.259Z,4.50
2023-01-22T00:38:36.711Z,3.88
2023-01-22T00:41:06.708Z,4.68
2023-01-22T00:43:35.144Z,4.63
2023-01-22T00:46:05.194Z,3.83
2023-01-22T00:48:32.415Z,3.65
2023-01-22T00:50:59.408Z,4.53
2023-01-22T00:53:26.638Z,4.43
2023-01-22T00:55:59.633Z,4.80
2023-01-22T00:58:27.719Z,5.60
2023-01-22T01:00:55.589Z,6.13
2023-01-22T01:03:32.174Z,5.75
2023-01-22T01:06:20.864Z,4.63
2023-01-22T01:08:48.754Z,4.80
2023-01-22T01:11:22.326Z,4.47
2023-01-22T01:13:50.715Z,4.57
2023-01-22T01:16:24.007Z,4.20
2023-01-22T01:18:51.077Z,3.55
2023-01-22T01:21:19.448Z,3.63
2023-01-22T01:23:47.078Z,3.72
2023-01-22T01:26:15.566Z,4.25
2023-01-22T01:28:44.204Z,4.25
2023-01-22T01:31:13.531Z,4.15
2023-01-22T01:33:41.252Z,3.50
2023-01-22T01:36:12.622Z,3.90
2023-01-22T01:38:39.661Z,4.28
2023-01-22T01:41:07.415Z,3.97
2023-01-22T01:43:34.835Z,3.90
2023-01-22T01:46:04.030Z,4.18
2023-01-22T01:48:43.655Z,4.22
2023-01-22T01:51:22.439Z,3.00
2023-01-22T01:53:51.933Z,4.20
2023-01-22T01:56:41.764Z,4.05
2023-01-22T01:59:12.791Z,3.63
2023-01-22T02:01:40.119Z,4.95
2023-01-22T02:04:07.659Z,4.18
2023-01-22T02:06:34.574Z,4.80
2023-01-22T02:09:02.769Z,4.43
2023-01-22T02:11:30.770Z,6.05
2023-01-22T02:14:03.163Z,5.35
2023-01-22T02:16:30.395Z,6.07
2023-01-22T02:18:57.317Z,6.20
2023-01-22T02:21:34.468Z,6.05
2023-01-22T02:24:02.295Z,6.07
2023-01-22T02:26:29.491Z,6.72
2023-01-22T02:28:56.502Z,5.50
2023-01-22T02:31:23.403Z,4.90
2023-01-22T02:33:50.645Z,5.20
2023-01-22T02:36:17.633Z,5.93
2023-01-22T02:38:44.563Z,5.80
2023-01-22T02:41:12.198Z,7.07
2023-01-22T02:43:39.182Z,6.05
2023-01-22T02:46:06.292Z,6.22
2023-01-22T02:48:33.246Z,5.20
2023-01-22T02:51:00.226Z,5.68
2023-01-22T02:53:27.217Z,5.65
2023-01-22T02:55:54.172Z,6.50
2023-01-22T02:58:21.375Z,5.78
2023-01-22T03:00:48.466Z,6.13
2023-01-22T03:03:18.373Z,5.85
2023-01-22T03:05:52.173Z,4.45
2023-01-22T03:08:20.183Z,4.85
2023-01-22T03:10:47.141Z,5.85
2023-01-22T03:13:32.667Z,5.43
2023-01-22T03:16:18.241Z,5.47
2023-01-22T03:19:03.898Z,4.95
2023-01-22T03:21:30.789Z,5.10
2023-01-22T03:23:57.664Z,5.47
2023-01-22T03:26:25.036Z,5.15
2023-01-22T03:28:52.095Z,4.95
2023-01-22T03:31:19.475Z,4.63
2023-01-22T03:33:46.869Z,5.10
2023-01-22T03:36:15.429Z,5.18
2023-01-22T03:38:42.963Z,5.82
2023-01-22T03:41:15.407Z,6.50
2023-01-22T03:43:43.025Z,6.38
2023-01-22T03:46:15.965Z,6.43
2023-01-22T03:48:43.791Z,6.60
2023-01-22T03:51:16.969Z,6.60
2023-01-22T03:53:45.044Z,7.53
2023-01-22T03:56:16.505Z,5.80
2023-01-22T03:58:43.897Z,6.00
2023-01-22T04:01:13.748Z,5.82
2023-01-22T04:03:40.959Z,6.50
2023-01-22T04:06:09.579Z,6.45
2023-01-22T04:08:37.601Z,4.65
2023-01-22T04:11:05.626Z,6.60
2023-01-22T04:13:34.493Z,7.10
2023-01-22T04:16:01.896Z,7.47
2023-01-22T04:18:29.127Z,8.25
2023-01-22T04:20:56.128Z,8.82
2023-01-22T04:23:23.797Z,7.15
2023-01-22T04:25:51.364Z,7.82
2023-01-22T04:28:19.240Z,6.95
2023-01-22T04:30:47.951Z,7.20
2023-01-22T04:33:14.940Z,6.90
2023-01-22T04:35:42.512Z,7.72
2023-01-22T04:38:13.473Z,6.80
2023-01-22T04:40:40.538Z,6.20
2023-01-22T04:43:08.722Z,5.53
2023-01-22T04:45:35.657Z,5.75
2023-01-22T04:48:02.818Z,6.03
2023-01-22T04:50:32.929Z,5.65
2023-01-22T04:53:01.009Z,5.53
2023-01-22T04:55:29.229Z,5.70
2023-01-22T04:58:00.350Z,5.78
2023-01-22T05:00:28.261Z,4.60
2023-01-22T05:02:59.548Z,5.85
2023-01-22T05:05:27.568Z,6.20
2023-01-22T05:07:55.042Z,6.65
2023-01-22T05:10:22.077Z,6.50
2023-01-22T05:12:49.314Z,5.50
2023-01-22T05:15:24.180Z,5.65
2023-01-22T05:17:52.167Z,6.18
2023-01-22T05:20:19.398Z,6.45
2023-01-22T05:22:46.449Z,5.72
2023-01-22T05:25:13.842Z,6.32
2023-01-22T05:27:40.993Z,5.85
2023-01-22T05:30:08.663Z,6.90
2023-01-22T05:32:35.808Z,5.75
2023-01-22T05:35:03.515Z,4.70
2023-01-22T05:37:31.929Z,6.38
2023-01-22T05:39:58.888Z,6.55
2023-01-22T05:42:25.812Z,5.47
2023-01-22T05:44:52.695Z,6.03
2023-01-22T05:47:19.601Z,6.88
2023-01-22T05:49:48.718Z,5.45
2023-01-22T05:52:15.872Z,6.80
2023-01-22T05:54:42.756Z,7.00
2023-01-22T05:57:12.379Z,6.50
2023-01-22T05:59:39.908Z,7.22
2023-01-22T06:02:06.838Z,5.68
2023-01-22T06:04:33.800Z,7.25
2023-01-22T06:07:00.769Z,7.65
2023-01-22T06:09:27.671Z,6.97
2023-01-22T06:11:56.856Z,7.25
2023-01-22T06:14:23.740Z,7.25
2023-01-22T06:16:50.729Z,7.03
2023-01-22T06:19:17.614Z,6.78
2023-01-22T06:21:44.524Z,7.22
2023-01-22T06:24:11.670Z,6.05
2023-01-22T06:26:41.180Z,7.63
2023-01-22T06:29:08.070Z,6.93
2023-01-22T06:31:35.087Z,8.20
2023-01-22T06:34:05.559Z,8.27
2023-01-22T06:36:32.439Z,7.53
2023-01-22T06:38:59.375Z,8.75
2023-01-22T06:41:26.288Z,9.23
2023-01-22T06:43:53.236Z,9.85
2023-01-22T06:46:20.474Z,9.93
2023-01-22T06:48:49.761Z,11.10
2023-01-22T06:51:16.914Z,10.88
2023-01-22T06:53:43.900Z,9.13
2023-01-22T06:56:10.772Z,9.18
2023-01-22T06:58:37.694Z,8.63
2023-01-22T07:01:06.042Z,7.90
2023-01-22T07:03:33.038Z,7.80
2023-01-22T07:06:03.310Z,7.75
2023-01-22T07:08:32.000Z,8.40
2023-01-22T07:10:59.975Z,8.70
2023-01-22T07:13:29.382Z,9.63
2023-01-22T07:15:56.579Z,9.45
2023-01-22T07:18:25.987Z,9.82
2023-01-22T07:20:52.938Z,10.75
2023-01-22T07:23:19.917Z,9.82
2023-01-22T07:25:46.942Z,9.30
2023-01-22T07:28:15.260Z,9.88
2023-01-22T07:30:43.664Z,11.40
2023-01-22T07:33:11.867Z,12.90
2023-01-22T07:35:39.270Z,14.20
2023-01-22T07:38:09.767Z,16.67
2023-01-22T07:40:36.827Z,16.27
2023-01-22T07:43:10.638Z,17.52
2023-01-22T07:45:37.610Z,17.98
2023-01-22T07:48:07.726Z,16.65
2023-01-22T07:50:34.656Z,17.95
2023-01-22T07:53:01.569Z,15.05
2023-01-22T07:55:31.463Z,13.05
2023-01-22T07:58:06.215Z,11.60
2023-01-22T08:00:35.352Z,11.25
2023-01-22T08:03:10.678Z,12.10
2023-01-22T08:05:40.172Z,10.68
2023-01-22T08:08:16.640Z,12.38
2023-01-22T08:10:44.172Z,10.40
2023-01-22T08:13:11.123Z,9.45
2023-01-22T08:15:38.331Z,10.77
2023-01-22T08:18:05.297Z,8.80
2023-01-22T08:20:34.390Z,8.43
2023-01-22T08:23:01.555Z,8.82
2023-01-22T08:25:29.321Z,7.82
2023-01-22T08:28:02.926Z,8.20
2023-01-22T08:30:33.900Z,7.38
2023-01-22T08:33:03.404Z,7.95
2023-01-22T08:35:30.786Z,7.20
2023-01-22T08:38:03.142Z,7.47
2023-01-22T08:40:30.048Z,8.68
2023-01-22T08:42:56.925Z,8.05
2023-01-22T08:45:24.260Z,8.95
2023-01-22T08:47:55.752Z,8.35
2023-01-22T08:50:22.607Z,6.47
2023-01-22T08:52:49.463Z,8.13
2023-01-22T08:55:16.408Z,6.60
2023-01-22T08:57:43.345Z,5.30
2023-01-22T09:00:11.304Z,7.00
2023-01-22T09:02:38.228Z,7.72
2023-01-22T09:05:08.167Z,7.20
2023-01-22T09:07:35.080Z,5.10
2023-01-22T09:10:08.170Z,7.10
2023-01-22T09:12:35.283Z,5.32
2023-01-22T09:15:02.452Z,4.97
2023-01-22T09:17:29.538Z,3.88
2023-01-22T09:19:56.471Z,4.65
2023-01-22T09:22:23.421Z,5.88
2023-01-22T09:24:50.319Z,6.10
2023-01-22T09:27:17.172Z,4.97
2023-01-22T09:29:45.109Z,6.10
2023-01-22T09:32:14.332Z,5.80
2023-01-22T09:34:41.200Z,7.15
2023-01-22T09:37:11.083Z,7.25
2023-01-22T09:39:38.132Z,7.05
2023-01-22T09:42:09.561Z,6.82
2023-01-22T09:44:43.135Z,6.45
2023-01-22T09:47:16.303Z,6.43
2023-01-22T09:50:04.907Z,6.43
2023-01-22T09:52:36.431Z,6.32
2023-01-22T09:55:03.472Z,5.70
2023-01-22T09:57:32.019Z,6.60
2023-01-22T09:59:59.442Z,6.18
2023-01-22T10:02:39.372Z,5.65
2023-01-22T10:05:33.146Z,4.72
2023-01-22T10:08:20.558Z,4.18
2023-01-22T10:10:48.075Z,4.97
2023-01-22T10:13:38.597Z,4.68
2023-01-22T10:16:06.818Z,4.57
2023-01-22T10:18:48.567Z,3.95
2023-01-22T10:21:18.427Z,4.20
2023-01-22T10:23:45.914Z,4.32
2023-01-22T10:26:46.492Z,4.63
2023-01-22T10:29:21.768Z,4.70
2023-01-22T10:31:53.766Z,5.00
2023-01-22T10:34:30.933Z,5.35
2023-01-22T10:37:03.787Z,5.35
2023-01-22T10:39:50.820Z,4.53
2023-01-22T10:42:20.031Z,5.35
2023-01-22T10:44:47.234Z,5.75
2023-01-22T10:47:20.778Z,4.05
2023-01-22T10:49:48.710Z,3.83
2023-01-22T10:52:23.152Z,3.60
2023-01-22T10:54:59.400Z,4.47
2023-01-22T10:57:33.649Z,4.70
2023-01-22T11:00:16.037Z,5.05
2023-01-22T11:02:46.296Z,4.45
2023-01-22T11:05:25.215Z,4.75
2023-01-22T11:08:04.979Z,4.75
2023-01-22T11:10:32.089Z,6.07
2023-01-22T11:13:20.449Z,5.82
2023-01-22T11:16:11.122Z,6.05
2023-01-22T11:18:39.329Z,5.18
2023-01-22T11:21:14.825Z,5.03
2023-01-22T11:23:52.439Z,4.70
2023-01-22T11:26:37.970Z,5.15
2023-01-22T11:29:28.670Z,6.55
2023-01-22T11:32:01.379Z,5.20
2023-01-22T11:34:46.099Z,4.70
2023-01-22T11:37:19.487Z,4.40
2023-01-22T11:39:53.674Z,5.20
2023-01-22T11:42:32.625Z,6.07
2023-01-22T11:45:21.485Z,3.72
2023-01-22T11:48:01.456Z,5.57
2023-01-22T11:50:42.440Z,5.97
2023-01-22T11:56:19.990Z,4.90
2023-01-22T11:59:02.982Z,4.57
2023-01-22T12:01:32.943Z,4.40
2023-01-22T12:04:18.354Z,3.43
2023-01-22T12:07:06.731Z,4.82
2023-01-22T12:10:05.588Z,5.97
2023-01-22T12:13:09.294Z,4.80
2023-01-22T12:15:36.325Z,5.68
2023-01-22T12:18:30.284Z,5.72
2023-01-22T12:21:11.994Z,6.47
2023-01-22T12:23:54.251Z,9.48
2023-01-22T12:26:25.353Z,5.88
2023-01-22T12:29:09.942Z,5.93
2023-01-22T12:31:46.026Z,5.47
2023-01-22T12:34:27.785Z,5.55
2023-01-22T12:36:55.669Z,5.13
2023-01-22T12:40:01.280Z,4.68
2023-01-22T12:42:35.645Z,4.88
2023-01-22T12:45:28.305Z,4.43
2023-01-22T12:48:02.077Z,9.80
2023-01-22T12:50:29.544Z,6.43
2023-01-22T12:53:05.059Z,6.22
2023-01-22T12:55:37.338Z,5.97
2023-01-22T12:58:17.784Z,5.10
2023-01-22T13:00:47.220Z,4.57
2023-01-22T13:03:32.474Z,5.43
2023-01-22T13:06:02.064Z,5.10
2023-01-22T13:08:45.457Z,5.32
2023-01-22T13:11:34.154Z,5.65
2023-01-22T13:14:24.071Z,6.35
2023-01-22T13:17:06.023Z,6.28
2023-01-22T13:19:42.394Z,6.30
2023-01-22T13:22:35.647Z,5.10
2023-01-22T13:25:02.541Z,6.18
2023-01-22T13:27:33.752Z,6.40
2023-01-22T13:30:22.781Z,5.97
2023-01-22T13:33:19.098Z,6.50
2023-01-22T13:35:46.864Z,5.90
2023-01-22T13:38:24.230Z,5.00
2023-01-22T13:40:57.603Z,6.10
2023-01-22T13:43:25.861Z,5.47
2023-01-22T13:45:55.250Z,5.65
2023-01-22T13:48:25.190Z,6.57
2023-01-22T13:51:05.315Z,6.20
2023-01-22T13:53:44.519Z,5.40
2023-01-22T13:56:21.223Z,5.47
2023-01-22T13:58:51.013Z,5.82
2023-01-22T14:01:30.478Z,6.82
2023-01-22T14:04:03.071Z,6.30
2023-01-22T14:06:30.541Z,5.88
2023-01-22T14:08:58.178Z,5.30
2023-01-22T14:11:25.066Z,5.50
2023-01-22T14:13:53.360Z,4.93
2023-01-22T14:16:22.539Z,6.20
2023-01-22T14:18:49.671Z,8.85
2023-01-22T14:21:19.096Z,9.63
2023-01-22T14:23:46.353Z,8.65
2023-01-22T14:26:13.432Z,7.28
2023-01-22T14:28:40.317Z,8.02
2023-01-22T14:31:07.245Z,6.80
2023-01-22T14:33:35.095Z,6.20
2023-01-22T14:36:02.412Z,7.05
2023-01-22T14:38:31.598Z,5.88
2023-01-22T14:40:58.522Z,6.00
2023-01-22T14:43:25.484Z,6.20
2023-01-22T14:45:52.470Z,6.03
2023-01-22T14:48:24.828Z,6.20
2023-01-22T14:50:51.775Z,6.38
2023-01-22T14:53:19.605Z,7.50
2023-01-22T14:55:47.716Z,8.40
2023-01-22T14:58:20.900Z,9.30
2023-01-22T15:00:50.263Z,10.40
2023-01-22T15:03:17.458Z,10.07
2023-01-22T15:05:44.807Z,9.63
2023-01-22T15:08:14.175Z,8.77
2023-01-22T15:10:41.077Z,8.77
2023-01-22T15:13:08.304Z,10.48
2023-01-22T15:15:37.751Z,10.73
2023-01-22T15:18:04.652Z,10.35
2023-01-22T15:20:31.619Z,9.52
2023-01-22T15:23:01.177Z,8.55
2023-01-22T15:25:32.306Z,8.23
2023-01-22T15:28:03.105Z,10.15
2023-01-22T15:30:30.186Z,9.82
2023-01-22T15:33:02.332Z,10.20
2023-01-22T15:35:32.169Z,10.13
2023-01-22T15:37:59.344Z,9.10
2023-01-22T15:40:26.330Z,10.57
2023-01-22T15:42:53.220Z,8.15
2023-01-22T15:45:22.674Z,8.80
2023-01-22T15:47:49.989Z,8.55
2023-01-22T15:50:20.694Z,9.10
2023-01-22T15:52:53.768Z,8.43
2023-01-22T15:55:20.748Z,8.50
2023-01-22T15:57:50.490Z,6.57
2023-01-22T16:00:18.099Z,7.63
2023-01-22T16:02:47.707Z,7.45
2023-01-22T16:05:14.830Z,6.90
2023-01-22T16:07:44.429Z,7.15
2023-01-22T16:10:12.007Z,6.57
2023-01-22T16:12:39.163Z,6.47
2023-01-22T16:15:07.453Z,6.47
2023-01-22T16:17:36.898Z,7.00
2023-01-22T16:20:07.404Z,7.20
2023-01-22T16:22:36.538Z,6.07
2023-01-22T16:25:05.993Z,6.93
2023-01-22T16:27:34.460Z,6.38
2023-01-22T16:30:02.139Z,5.70
2023-01-22T16:32:29.117Z,6.45
2023-01-22T16:34:56.088Z,5.60
2023-01-22T16:37:23.158Z,6.05
2023-01-22T16:39:50.102Z,6.25
2023-01-22T16:42:17.284Z,6.15
2023-01-22T16:44:44.512Z,7.03
2023-01-22T16:47:15.316Z,6.43
2023-01-22T16:49:42.924Z,5.72
2023-01-22T16:52:22.025Z,6.75
2023-01-22T16:54:49.752Z,6.65
2023-01-22T16:57:18.077Z,6.60
2023-01-22T16:59:45.602Z,6.38
2023-01-22T17:02:15.542Z,6.50
2023-01-22T17:04:48.892Z,7.00
2023-01-22T17:07:32.267Z,8.30
2023-01-22T17:10:00.776Z,9.63
2023-01-22T17:12:27.809Z,7.75
2023-01-22T17:14:54.761Z,8.63
2023-01-22T17:17:22.031Z,8.27
2023-01-22T17:19:49.222Z,7.93
2023-01-22T17:22:16.495Z,7.47
2023-01-22T17:24:43.547Z,8.18
2023-01-22T17:27:14.223Z,7.53
2023-01-22T17:29:42.116Z,5.65
2023-01-22T17:32:09.237Z,5.63
2023-01-22T17:34:37.464Z,6.05
2023-01-22T17:37:09.579Z,6.07
2023-01-22T17:39:38.865Z,6.03
2023-01-22T17:42:06.154Z,5.85
2023-01-22T17:44:35.616Z,6.38
2023-01-22T17:47:03.137Z,5.43
2023-01-22T17:49:33.398Z,4.70
2023-01-22T17:52:00.448Z,6.25
2023-01-22T17:54:27.418Z,6.10
2023-01-22T17:56:54.669Z,7.88
2023-01-22T17:59:24.886Z,6.82
2023-01-22T18:01:52.056Z,7.47
2023-01-22T18:04:21.291Z,7.68
2023-01-22T18:06:49.877Z,6.10
2023-01-22T18:09:17.422Z,5.82
2023-01-22T18:11:44.359Z,6.47
2023-01-22T18:14:22.308Z,6.90
2023-01-22T18:16:51.612Z,6.43
2023-01-22T18:19:18.901Z,6.22
2023-01-22T18:21:45.942Z,6.78
2023-01-22T18:24:13.522Z,4.45
2023-01-22T18:26:40.635Z,5.70
2023-01-22T18:29:08.330Z,6.38
2023-01-22T18:31:35.713Z,6.10
2023-01-22T18:34:05.560Z,6.82
2023-01-22T18:36:35.290Z,6.80
2023-01-22T18:39:07.330Z,7.53
2023-01-22T18:41:34.648Z,7.20
2023-01-22T18:44:01.891Z,6.35
2023-01-22T18:46:33.821Z,6.70
2023-01-22T18:49:06.972Z,5.72
2023-01-22T18:51:34.783Z,6.07
2023-01-22T18:54:03.079Z,7.05
2023-01-22T18:56:30.133Z,6.32
2023-01-22T18:58:58.248Z,5.50
2023-01-22T19:01:28.153Z,4.47
2023-01-22T19:03:58.932Z,5.57
2023-01-22T19:06:28.851Z,6.20
2023-01-22T19:08:59.496Z,5.83
2023-01-22T19:11:26.710Z,5.50
2023-01-22T19:13:55.636Z,5.15
2023-01-22T19:16:24.494Z,5.32
2023-01-22T19:19:04.031Z,6.50
2023-01-22T19:21:31.406Z,5.43
2023-01-22T19:24:01.334Z,5.57
2023-01-22T19:26:31.830Z,5.53
2023-01-22T19:29:02.611Z,6.50
2023-01-22T19:31:39.632Z,5.35
2023-01-22T19:34:07.457Z,4.63
2023-01-22T19:36:38.519Z,5.50
2023-01-22T19:39:18.149Z,6.57
2023-01-22T19:41:45.045Z,5.22
2023-01-22T19:44:12.335Z,6.07
2023-01-22T19:46:40.081Z,5.68
2023-01-22T19:49:08.685Z,5.05
2023-01-22T19:51:36.026Z,5.35
2023-01-22T19:54:04.797Z,4.70
2023-01-22T19:56:36.495Z,4.25
2023-01-22T19:59:07.752Z,4.57
2023-01-22T20:01:39.497Z,4.20
2023-01-22T20:04:12.659Z,4.50
2023-01-22T20:06:40.231Z,5.05
2023-01-22T20:09:07.301Z,5.07
2023-01-22T20:11:34.915Z,5.10
2023-01-22T20:14:01.942Z,4.50
2023-01-22T20:16:30.263Z,5.13
2023-01-22T20:18:58.205Z,5.53
2023-01-22T20:21:27.602Z,5.00
2023-01-22T20:23:54.598Z,5.93
2023-01-22T20:26:24.748Z,5.70
2023-01-22T20:28:51.678Z,5.45
2023-01-22T20:31:23.537Z,5.65
2023-01-22T20:33:57.987Z,4.80
2023-01-22T20:36:29.202Z,4.68
2023-01-22T20:38:56.950Z,5.18
2023-01-22T20:41:27.534Z,4.50
2023-01-22T20:43:54.956Z,6.05
2023-01-22T20:46:24.750Z,6.38
2023-01-22T20:48:52.966Z,6.45
2023-01-22T20:51:29.815Z,5.03
2023-01-22T20:53:57.714Z,5.22
2023-01-22T20:56:28.987Z,5.32
2023-01-22T20:59:08.072Z,6.10
2023-01-22T21:01:38.609Z,5.53
2023-01-22T21:04:06.126Z,6.00
2023-01-22T21:06:35.565Z,5.28
2023-01-22T21:09:03.426Z,5.78
2023-01-22T21:11:32.150Z,5.90
2023-01-22T21:14:00.544Z,5.38
2023-01-22T21:16:33.453Z,6.25
2023-01-22T21:19:13.701Z,6.18
2023-01-22T21:21:40.615Z,6.40
2023-01-22T21:24:08.132Z,6.97
2023-01-22T21:26:35.057Z,6.95
2023-01-22T21:29:05.589Z,7.90
2023-01-22T21:31:32.557Z,8.63
2023-01-22T21:34:04.148Z,9.63
2023-01-22T21:36:39.996Z,7.38
2023-01-22T21:39:09.773Z,7.15
2023-01-22T21:41:37.436Z,6.78
2023-01-22T21:44:25.654Z,5.95
2023-01-22T21:46:52.539Z,6.57
2023-01-22T21:49:23.455Z,6.13
2023-01-22T21:54:20.486Z,5.45
2023-01-22T21:56:47.706Z,6.20
2023-01-22T21:59:15.170Z,6.07
2023-01-22T22:01:42.803Z,5.55
2023-01-22T22:04:11.010Z,5.78
2023-01-22T22:06:38.621Z,6.20
2023-01-22T22:09:12.102Z,6.70
2023-01-22T22:11:39.010Z,6.57
2023-01-22T22:14:06.518Z,5.60
2023-01-22T22:16:34.625Z,6.20
2023-01-22T22:19:01.631Z,6.40
2023-01-22T22:21:28.540Z,6.05
2023-01-22T22:23:58.154Z,6.03
2023-01-22T22:26:26.313Z,5.95
2023-01-22T22:28:53.510Z,5.85
2023-01-22T22:31:20.945Z,6.30
2023-01-22T22:33:57.733Z,6.25
2023-01-22T22:36:26.805Z,6.28
2023-01-22T22:38:53.810Z,6.55
2023-01-22T22:41:32.349Z,7.30
2023-01-22T22:43:59.271Z,7.13
2023-01-22T22:46:31.276Z,6.22
2023-01-22T22:49:01.042Z,6.50
2023-01-22T22:51:33.795Z,6.65
2023-01-22T22:54:07.861Z,6.85
2023-01-22T22:56:37.601Z,6.30
2023-01-22T22:59:05.309Z,7.40
2023-01-22T23:01:33.307Z,7.57
2023-01-22T23:04:01.093Z,6.53
2023-01-22T23:06:30.962Z,7.10
2023-01-22T23:09:06.460Z,7.05
2023-01-22T23:11:34.773Z,7.43
2023-01-22T23:14:02.828Z,7.85
2023-01-22T23:16:36.888Z,8.23
2023-01-22T23:19:11.657Z,7.68
2023-01-22T23:21:41.741Z,8.10
2023-01-22T23:24:10.435Z,8.18
2023-01-22T23:26:37.771Z,8.15
2023-01-22T23:29:08.471Z,7.90
2023-01-22T23:31:38.325Z,9.35
2023-01-22T23:34:09.206Z,8.10
2023-01-22T23:36:38.837Z,7.68
2023-01-22T23:39:05.757Z,7.88
2023-01-22T23:41:34.896Z,7.72
2023-01-22T23:44:02.163Z,7.93
2023-01-22T23:46:31.029Z,8.25
2023-01-22T23:48:59.216Z,8.00
2023-01-22T23:51:27.103Z,8.27
2023-01-22T23:53:54.495Z,8.07
2023-01-22T23:56:31.929Z,8.10
2023-01-22T23:58:59.597Z,8.77
